Floreffe, Pennsylvania
Current Conditions -  °F | °C
As of 2:53 PM on Thursday 23 Oct 2014 (Local Time) from KAGC Reporting Station
Few Clouds Few Clouds  
Wind Chill: 60°   Ceiling: Unl
Heat Index: 60°   Visibility: 10mi
Dew Point: 40°   Wind: 12mph
Humidity: 47%   Direction: 310°NW
Pressure: 30.04"   Gusts: 21mph
Location:  40.2958°N, 79.9241°W
Report Text: KAGC 231853Z 31010G18KT 280V340 10SM FEW039 16/04 A3004 RMK AO2 SLP179 T01560044
Loading
Personal Weather Stations






























Interactive Weather Map
Tropical Storm Tracking
New forecast layout! Learn more

10-Day Weather Forecast

Advertisements
Track Severe Weather on mobile